createdAt,value
2019-02-26T00:00:17.130Z,142219.38
2019-02-26T00:05:17.333Z,142219.38
2019-02-26T00:10:11.665Z,142191.38
2019-02-26T00:15:13.337Z,142187.87
2019-02-26T00:20:10.946Z,142158.69
2019-02-26T00:25:08.490Z,142147.06
2019-02-26T00:30:11.291Z,142105.03
2019-02-26T00:35:08.586Z,142098.05
2019-02-26T00:40:07.901Z,142238.05
2019-02-26T00:45:29.488Z,142175.05
2019-02-26T00:50:28.029Z,142086.38
2019-02-26T00:55:27.303Z,142071.20
2019-02-26T01:00:21.937Z,142240.39
2019-02-26T01:05:18.528Z,142273.05
2019-02-26T01:10:16.398Z,142191.38
2019-02-26T01:15:19.013Z,142098.05
2019-02-26T01:20:16.042Z,142103.89
2019-02-26T01:25:13.437Z,142035.08
2019-02-26T01:30:18.215Z,142033.89
2019-02-26T01:35:12.927Z,142149.34
2019-02-26T01:40:13.793Z,142058.37
2019-02-26T01:45:13.664Z,142039.72
2019-02-26T01:50:11.609Z,142004.75
2019-02-26T01:55:09.841Z,142044.41
2019-02-26T02:00:09.531Z,142235.70
2019-02-26T02:05:07.106Z,142094.56
2019-02-26T02:10:05.639Z,142002.41
2019-02-26T02:15:02.587Z,142044.41
2019-02-26T02:19:58.479Z,142112.06
2019-02-26T02:24:55.692Z,141991.94
2019-02-26T02:29:54.831Z,141951.14
2019-02-26T02:34:49.482Z,141960.47
2019-02-26T02:39:45.386Z,141944.16
2019-02-26T02:44:44.856Z,141925.50
2019-02-26T02:49:42.482Z,142074.75
2019-02-26T02:54:41.095Z,141989.59
2019-02-26T02:59:39.407Z,141937.13
2019-02-26T03:04:34.961Z,141966.30
2019-02-26T03:09:31.822Z,142011.73
2019-02-26T03:14:30.768Z,141923.16
2019-02-26T03:19:26.466Z,141864.88
2019-02-26T03:24:25.379Z,141846.22
2019-02-26T03:29:20.153Z,141825.28
2019-02-26T03:34:21.804Z,141874.20
2019-02-26T03:39:13.869Z,141792.64
2019-02-26T03:44:09.757Z,141841.59
2019-02-26T03:49:05.695Z,141807.80
2019-02-26T03:54:01.687Z,141790.30
2019-02-26T03:59:00.241Z,141777.50
2019-02-26T04:03:57.214Z,141753.02
2019-02-26T04:08:55.782Z,141763.53
2019-02-26T04:13:52.147Z,141769.38
2019-02-26T04:18:49.100Z,141734.39
2019-02-26T04:23:46.768Z,141713.45
2019-02-26T04:28:49.685Z,141862.53
2019-02-26T04:33:53.748Z,141791.50
2019-02-26T04:39:27.282Z,141747.19
2019-02-26T04:45:08.956Z,141732.09
2019-02-26T04:50:08.646Z,141700.59
2019-02-26T04:55:06.281Z,141687.80
2019-02-26T05:00:05.233Z,141680.83
2019-02-26T05:05:00.759Z,141669.17
2019-02-26T05:09:58.779Z,141794.98
2019-02-26T05:15:13.929Z,141755.36
2019-02-26T05:20:12.635Z,141701.80
2019-02-26T05:25:10.363Z,141698.31
2019-02-26T05:30:09.429Z,141715.75
2019-02-26T05:35:05.350Z,141676.19
2019-02-26T05:40:01.226Z,141650.53
2019-02-26T05:45:00.823Z,141613.28
2019-02-26T05:49:59.550Z,141659.84
2019-02-26T05:54:56.601Z,141641.22
2019-02-26T05:59:52.496Z,141635.44
2019-02-26T06:04:48.379Z,141634.25
2019-02-26T06:09:45.473Z,141620.30
2019-02-26T06:14:43.860Z,141740.22
2019-02-26T06:19:44.771Z,141817.11
2019-02-26T06:24:40.459Z,141723.92
2019-02-26T06:29:37.413Z,141741.41
2019-02-26T06:34:33.372Z,141721.58
2019-02-26T06:39:31.693Z,141711.11
2019-02-26T06:44:27.062Z,141760.05
2019-02-26T06:49:24.597Z,142121.41
2019-02-26T06:54:22.668Z,142240.39
2019-02-26T06:59:22.338Z,142520.56
2019-02-26T07:04:18.218Z,142981.28
2019-02-26T07:09:16.421Z,143337.22
2019-02-26T07:14:11.898Z,143470.84
2019-02-26T07:19:09.151Z,143473.19
2019-02-26T07:24:07.662Z,143578.72
2019-02-26T07:29:05.606Z,143654.92
2019-02-26T07:34:03.083Z,143585.73
2019-02-26T07:38:59.005Z,143391.16
2019-02-26T07:43:54.920Z,143043.31
2019-02-26T07:48:53.956Z,142785.92
2019-02-26T07:53:51.145Z,142735.59
2019-02-26T07:58:46.883Z,142769.56
2019-02-26T08:03:43.951Z,142892.34
2019-02-26T08:08:42.058Z,142941.48
2019-02-26T08:13:38.358Z,143037.45
2019-02-26T08:18:34.287Z,143139.27
2019-02-26T08:23:30.175Z,143255.19
2019-02-26T08:28:26.062Z,143327.91
2019-02-26T08:33:22.078Z,143385.30
2019-02-26T08:38:17.965Z,143484.92
2019-02-26T08:43:13.867Z,143578.72
2019-02-26T08:48:09.758Z,143588.09
2019-02-26T08:53:05.646Z,143646.70
2019-02-26T08:58:01.539Z,143678.36
2019-02-26T09:02:57.424Z,143744.09
2019-02-26T09:07:53.430Z,143847.38
2019-02-26T09:12:51.717Z,143940.13
2019-02-26T09:17:47.187Z,143918.98
2019-02-26T09:22:45.763Z,143949.52
2019-02-26T09:27:42.955Z,143930.72
2019-02-26T09:32:40.237Z,143953.03
2019-02-26T09:37:36.697Z,144066.92
2019-02-26T09:42:32.610Z,144073.97
2019-02-26T09:47:30.891Z,144105.72
2019-02-26T09:52:27.771Z,144184.47
2019-02-26T09:57:25.926Z,144287.84
2019-02-26T10:02:24.104Z,144321.94
2019-02-26T10:07:19.669Z,144406.59
2019-02-26T10:12:17.165Z,144432.50
2019-02-26T10:17:14.122Z,144500.72
2019-02-26T10:22:13.643Z,144499.56
2019-02-26T10:27:09.347Z,144541.89
2019-02-26T10:32:11.220Z,144678.41
2019-02-26T10:37:06.453Z,144586.58
2019-02-26T10:42:04.912Z,144718.44
2019-02-26T10:47:08.743Z,144760.83
2019-02-26T10:52:07.293Z,144846.77
2019-02-26T10:57:08.507Z,144920.97
2019-02-26T11:02:07.770Z,144829.12
2019-02-26T11:07:08.451Z,144909.19
2019-02-26T11:12:05.189Z,144968.09
2019-02-26T11:17:00.146Z,144923.30
2019-02-26T11:21:58.681Z,144963.36
2019-02-26T11:26:53.841Z,144982.25
2019-02-26T11:31:49.832Z,145034.13
2019-02-26T11:36:45.721Z,144913.88
2019-02-26T11:41:41.603Z,144944.52
2019-02-26T11:46:37.488Z,144940.98
2019-02-26T11:51:37.167Z,145048.23
2019-02-26T11:56:31.184Z,145019.95
2019-02-26T12:01:29.325Z,145008.16
2019-02-26T12:06:25.336Z,145057.66
2019-02-26T12:11:23.324Z,145150.78
2019-02-26T12:16:19.413Z,145063.56
2019-02-26T12:21:15.323Z,145081.25
2019-02-26T12:26:11.207Z,145236.88
2019-02-26T12:31:09.915Z,145225.02
2019-02-26T12:36:07.461Z,145255.73
2019-02-26T12:41:02.775Z,145258.09
2019-02-26T12:46:00.911Z,145261.63
2019-02-26T12:50:58.466Z,145282.87
2019-02-26T12:55:56.502Z,145331.20
2019-02-26T13:00:52.105Z,145420.83
2019-02-26T13:05:49.159Z,145350.08
2019-02-26T13:10:49.578Z,145401.95
2019-02-26T13:15:44.845Z,145436.17
2019-02-26T13:20:44.454Z,145518.80
2019-02-26T13:25:41.379Z,145554.23
2019-02-26T13:30:37.451Z,145465.69
2019-02-26T13:35:33.337Z,145583.72
2019-02-26T13:40:29.274Z,145562.47
2019-02-26T13:45:30.595Z,145567.22
2019-02-26T13:50:27.672Z,145633.31
2019-02-26T13:55:23.560Z,145528.23
2019-02-26T14:00:25.979Z,145505.83
2019-02-26T14:05:17.424Z,145562.47
2019-02-26T14:10:18.290Z,145597.86
2019-02-26T14:15:21.372Z,145486.94
2019-02-26T14:20:17.513Z,145491.69
2019-02-26T14:25:13.410Z,145569.53
2019-02-26T14:30:22.163Z,145501.12
2019-02-26T14:35:20.317Z,145497.59
2019-02-26T14:40:19.490Z,145586.09
2019-02-26T14:45:22.196Z,145622.66
2019-02-26T14:50:43.213Z,145550.66
2019-02-26T14:55:39.207Z,145503.45
2019-02-26T15:00:35.133Z,145501.12
2019-02-26T15:05:31.081Z,145439.70
2019-02-26T15:10:27.079Z,145426.73
2019-02-26T15:15:24.195Z,145423.19
2019-02-26T15:20:26.370Z,145418.50
2019-02-26T15:25:24.978Z,145426.73
2019-02-26T15:30:21.835Z,145470.44
2019-02-26T15:35:17.828Z,145420.83
2019-02-26T15:40:15.301Z,145406.69
2019-02-26T15:45:19.285Z,145413.75
2019-02-26T15:50:17.192Z,145403.16
2019-02-26T15:55:28.140Z,145404.31
2019-02-26T16:05:41.918Z,145359.50
2019-02-26T16:10:38.384Z,145354.77
2019-02-26T16:15:40.863Z,145304.06
2019-02-26T16:20:36.858Z,145281.66
2019-02-26T16:25:33.212Z,145309.97
2019-02-26T16:30:30.306Z,145286.41
2019-02-26T16:35:26.646Z,145199.09
2019-02-26T16:40:24.548Z,145175.50
2019-02-26T16:45:34.308Z,145121.28
2019-02-26T16:50:29.890Z,145074.16
2019-02-26T16:55:26.536Z,145001.11
2019-02-26T17:00:48.848Z,144970.41
2019-02-26T17:05:48.287Z,144883.28
2019-02-26T17:10:44.350Z,144623.08
2019-02-26T17:15:40.873Z,144427.81
2019-02-26T17:20:36.934Z,144341.95
2019-02-26T17:25:32.835Z,144219.72
2019-02-26T17:30:28.752Z,144132.75
2019-02-26T17:35:28.753Z,144099.88
2019-02-26T17:40:23.635Z,144051.66
2019-02-26T17:45:26.823Z,144222.08
2019-02-26T17:50:34.617Z,144178.59
2019-02-26T17:55:30.608Z,143963.58
2019-02-26T18:00:28.207Z,143796.91
2019-02-26T18:05:24.077Z,143807.45
2019-02-26T18:10:22.567Z,143642.03
2019-02-26T18:15:18.612Z,143574.00
2019-02-26T18:20:19.868Z,143637.31
2019-02-26T18:25:19.836Z,143578.72
2019-02-26T18:30:37.527Z,143535.33
2019-02-26T18:35:33.421Z,143434.53
2019-02-26T18:40:29.315Z,143363.03
2019-02-26T18:45:27.988Z,143467.31
2019-02-26T18:50:27.837Z,143341.94
2019-02-26T18:55:27.974Z,143273.94
2019-02-26T19:00:40.780Z,143265.77
2019-02-26T19:05:36.684Z,143258.70
2019-02-26T19:10:32.572Z,143332.56
2019-02-26T19:15:31.218Z,143170.88
2019-02-26T19:20:30.013Z,143105.31
2019-02-26T19:25:25.910Z,143057.33
2019-02-26T19:30:22.221Z,143032.75
2019-02-26T19:35:18.118Z,143119.37
2019-02-26T19:40:17.319Z,143175.58
2019-02-26T19:45:16.602Z,143098.30
2019-02-26T19:50:14.818Z,143142.78
2019-02-26T19:55:16.953Z,143047.97
2019-02-26T20:00:14.509Z,142908.75
2019-02-26T20:05:13.410Z,142964.91
2019-02-26T20:10:15.301Z,142829.19
2019-02-26T20:15:13.383Z,143035.09
2019-02-26T20:20:17.465Z,142845.56
2019-02-26T20:25:23.873Z,142763.70
2019-02-26T20:30:23.907Z,142723.94
2019-02-26T20:35:19.879Z,142658.48
2019-02-26T20:40:17.725Z,142640.94
2019-02-26T20:45:22.905Z,142776.56
2019-02-26T20:50:21.231Z,142771.91
2019-02-26T20:55:21.489Z,142637.44
2019-02-26T21:00:18.490Z,142604.69
2019-02-26T21:05:14.660Z,142591.84
2019-02-26T21:10:15.074Z,142542.81
2019-02-26T21:15:18.196Z,142506.58
2019-02-26T21:20:14.178Z,142513.58
2019-02-26T21:25:11.776Z,142498.38
2019-02-26T21:30:13.606Z,142454.02
2019-02-26T21:35:10.293Z,142417.84
2019-02-26T21:40:08.779Z,142466.84
2019-02-26T21:45:12.982Z,142406.16
2019-02-26T21:50:13.560Z,142378.13
2019-02-26T21:55:14.720Z,142478.55
2019-02-26T22:00:13.619Z,142402.66
2019-02-26T22:05:09.704Z,142369.94
2019-02-26T22:10:16.677Z,142347.75
2019-02-26T22:15:21.339Z,142408.50
2019-02-26T22:20:23.705Z,142371.13
2019-02-26T22:25:17.447Z,142505.42
2019-02-26T22:30:38.394Z,142373.44
2019-02-26T22:35:34.280Z,142329.08
2019-02-26T22:40:30.168Z,142408.50
2019-02-26T22:45:27.956Z,142472.69
2019-02-26T22:50:26.864Z,142277.75
2019-02-26T22:55:22.171Z,142205.36
2019-02-26T23:00:34.727Z,142253.22
2019-02-26T23:05:30.612Z,142228.72
2019-02-26T23:10:26.500Z,142156.38
2019-02-26T23:15:45.854Z,142134.22
2019-02-26T23:20:42.872Z,142257.88
2019-02-26T23:25:38.951Z,142276.55
2019-02-26T23:30:34.966Z,142222.88
2019-02-26T23:35:30.848Z,142155.19
2019-02-26T23:40:27.473Z,142106.23
2019-02-26T23:45:45.077Z,142072.41
2019-02-26T23:50:41.019Z,142066.56
2019-02-26T23:55:37.012Z,142232.20
